Time;durP1;ratioP1;P1;durP2;ratioP2;P2;SDS_P1;SDS_P2;PMS_P1;PMS_P2;Temp;Humidity;BMP_temperature;BMP_pressure;BME280_temperature;BME280_humidity;BME280_pressure;Samples;Min_cycle;Max_cycle;Signal;HPM_P1;HPM_P2
2022/09/27 00:00:26;;;;;;;4.88;3.30;;;;;;;-141.48;100.00;69781.59;5249105;28;20081;-85
2022/09/27 00:02:56;;;;;;;7.55;3.15;;;;;;;-141.48;100.00;69781.59;5251685;28;20017;-84
2022/09/27 00:05:27;;;;;;;14.45;4.00;;;;;;;-141.48;100.00;69781.59;5250649;28;20075;-86
2022/09/27 00:07:58;;;;;;;6.47;3.60;;;;;;;-141.48;100.00;69781.59;5248080;28;20033;-85
2022/09/27 00:10:28;;;;;;;8.05;2.97;;;;;;;-141.48;100.00;69781.59;5241098;28;20037;-87
2022/09/27 00:12:59;;;;;;;3.40;3.08;;;;;;;-141.48;100.00;69781.59;5233936;28;20498;-86
2022/09/27 00:15:29;;;;;;;4.97;2.38;;;;;;;-141.48;100.00;69781.59;5234587;28;20021;-86
2022/09/27 00:18:00;;;;;;;3.33;3.05;;;;;;;-141.48;100.00;69781.59;5235298;28;20020;-87
2022/09/27 00:20:30;;;;;;;3.65;3.13;;;;;;;-141.48;100.00;69781.59;5233626;28;20024;-88
2022/09/27 00:23:00;;;;;;;2.58;2.40;;;;;;;-141.48;100.00;69781.59;5234609;28;20037;-88
2022/09/27 00:25:31;;;;;;;5.40;2.30;;;;;;;-141.48;100.00;69781.59;5234903;28;20017;-86
2022/09/27 00:28:01;;;;;;;6.20;2.85;;;;;;;-141.48;100.00;69781.59;5234175;28;20032;-84
2022/09/27 00:30:32;;;;;;;2.55;2.35;;;;;;;-141.48;100.00;69781.59;5238246;28;20028;-86
2022/09/27 00:33:02;;;;;;;3.25;3.03;;;;;;;-141.48;100.00;69781.59;5242546;28;20028;-86
2022/09/27 00:35:32;;;;;;;5.82;1.95;;;;;;;-141.48;100.00;69781.59;5231896;28;20556;-86
2022/09/27 00:38:03;;;;;;;3.38;2.85;;;;;;;-141.48;100.00;69781.59;5235570;28;20112;-86
2022/09/27 00:40:33;;;;;;;2.50;2.40;;;;;;;-141.48;100.00;69781.59;5235912;28;20166;-84
2022/09/27 00:43:22;;;;;;;2.10;1.98;;;;;;;-141.48;100.00;69781.59;5233561;28;20033;-87
2022/09/27 00:45:58;;;;;;;1.77;1.77;;;;;;;-141.48;100.00;69781.59;5232931;28;20025;-87
2022/09/27 00:48:32;;;;;;;3.20;1.88;;;;;;;-141.48;100.00;69781.59;5233071;28;20172;-86
2022/09/27 00:51:06;;;;;;;3.03;2.88;;;;;;;-141.48;100.00;69781.59;5236104;28;20028;-84
2022/09/27 00:53:50;;;;;;;2.67;2.47;;;;;;;-141.48;100.00;69781.59;5232783;28;20044;-86
2022/09/27 00:56:26;;;;;;;5.80;2.25;;;;;;;-141.48;100.00;69781.59;5235465;28;20060;-85
2022/09/27 00:59:12;;;;;;;4.00;2.05;;;;;;;-141.48;100.00;69781.59;5236094;28;20017;-85
2022/09/27 01:01:43;;;;;;;6.50;2.97;;;;;;;-141.48;100.00;69781.59;5236902;28;20478;-86
2022/09/27 01:04:17;;;;;;;4.43;1.92;;;;;;;-141.48;100.00;69781.59;5234770;28;20112;-86
2022/09/27 01:06:48;;;;;;;3.83;2.58;;;;;;;-141.48;100.00;69781.59;5233775;28;20403;-87
2022/09/27 01:09:20;;;;;;;4.50;3.00;;;;;;;-141.48;100.00;69781.59;5233735;28;20032;-86
2022/09/27 01:11:50;;;;;;;6.40;2.78;;;;;;;-141.48;100.00;69781.59;5232335;28;20383;-86
2022/09/27 01:15:05;;;;;;;5.35;3.03;;;;;;;-141.48;100.00;69781.59;5232582;28;20035;-86
2022/09/27 01:18:06;;;;;;;2.35;2.25;;;;;;;-141.48;100.00;69781.59;5233993;28;20036;-84
2022/09/27 01:20:45;;;;;;;2.30;2.10;;;;;;;-141.48;100.00;69781.59;5235656;28;20041;-84
2022/09/27 01:23:50;;;;;;;1.43;1.43;;;;;;;-141.48;100.00;69781.59;5234270;28;20040;-85
2022/09/27 01:26:21;;;;;;;2.05;2.03;;;;;;;-141.48;100.00;69781.59;5230633;28;20055;-87
2022/09/27 01:29:09;;;;;;;7.85;3.53;;;;;;;-141.48;100.00;69781.59;5233501;28;20033;-85
2022/09/27 01:31:59;;;;;;;2.78;2.67;;;;;;;-141.48;100.00;69781.59;5234208;28;20060;-84
2022/09/27 01:34:45;;;;;;;7.82;3.08;;;;;;;-141.48;100.00;69781.59;5234314;28;20024;-85
2022/09/27 01:37:41;;;;;;;2.75;1.70;;;;;;;-141.48;100.00;69781.59;5235114;28;20047;-86
2022/09/27 01:40:28;;;;;;;3.00;2.70;;;;;;;-141.48;100.00;69781.59;5198279;28;20045;-85
2022/09/27 01:43:09;;;;;;;2.60;2.10;;;;;;;-141.48;100.00;69781.59;5233253;28;20115;-86
2022/09/27 01:45:49;;;;;;;6.18;3.05;;;;;;;-141.48;100.00;69781.59;5233064;28;20031;-86
2022/09/27 01:48:25;;;;;;;4.43;1.88;;;;;;;-141.48;100.00;69781.59;5235263;28;20021;-86
2022/09/27 01:51:08;;;;;;;1.45;1.45;;;;;;;-141.48;100.00;69781.59;5233232;28;20047;-85
2022/09/27 01:53:43;;;;;;;2.00;1.90;;;;;;;-141.48;100.00;69781.59;5234000;28;20033;-85
2022/09/27 01:56:22;;;;;;;1.80;1.70;;;;;;;-141.48;100.00;69781.59;5232203;28;20039;-87
2022/09/27 01:59:19;;;;;;;1.60;1.60;;;;;;;-141.48;100.00;69781.59;5233650;28;20088;-85
2022/09/27 02:01:51;;;;;;;2.42;1.90;;;;;;;-141.48;100.00;69781.59;5235414;28;20056;-83
2022/09/27 02:04:29;;;;;;;7.70;2.22;;;;;;;-141.48;100.00;69781.59;5233866;28;20028;-84
2022/09/27 02:07:09;;;;;;;3.80;3.22;;;;;;;-141.48;100.00;69781.59;5232953;28;20036;-84
2022/09/27 02:09:48;;;;;;;2.92;2.72;;;;;;;-141.48;100.00;69781.59;5234301;28;20056;-84
2022/09/27 02:12:26;;;;;;;10.03;4.03;;;;;;;-141.48;100.00;69781.59;5234211;28;20025;-84
2022/09/27 02:15:11;;;;;;;3.78;2.70;;;;;;;-141.48;100.00;69781.59;5233191;28;20268;-86
2022/09/27 02:17:41;;;;;;;3.50;3.25;;;;;;;-141.48;100.00;69781.59;5236275;28;20055;-84
2022/09/27 02:20:37;;;;;;;8.13;3.25;;;;;;;-141.48;100.00;69781.59;5238887;28;20017;-83
2022/09/27 02:23:21;;;;;;;3.25;2.80;;;;;;;-141.48;100.00;69781.59;5237756;28;20036;-84
2022/09/27 02:26:01;;;;;;;3.38;3.13;;;;;;;-141.48;100.00;69781.59;5237612;28;20033;-84
2022/09/27 02:28:38;;;;;;;;;;;;;;;-141.48;100.00;69781.59;5238388;28;20040;-84
2022/09/27 02:31:09;;;;;;;2.65;2.28;;;;;;;-141.48;100.00;69781.59;5237798;28;19909;-84
2022/09/27 02:33:46;;;;;;;5.07;2.58;;;;;;;-141.48;100.00;69781.59;5235205;28;20028;-84
2022/09/27 02:36:16;;;;;;;3.10;2.63;;;;;;;-141.48;100.00;69781.59;5237188;28;20024;-83
2022/09/27 02:38:48;;;;;;;7.55;3.67;;;;;;;-141.48;100.00;69781.59;5237004;28;20035;-84
2022/09/27 02:41:20;;;;;;;3.67;3.03;;;;;;;-141.48;100.00;69781.59;5236561;28;20020;-83
2022/09/27 02:44:01;;;;;;;6.50;2.90;;;;;;;-141.48;100.00;69781.59;5235465;28;20037;-82
2022/09/27 02:46:43;;;;;;;2.47;2.30;;;;;;;-141.48;100.00;69781.59;5236958;28;20096;-85
2022/09/27 02:49:35;;;;;;;6.63;2.80;;;;;;;-141.48;100.00;69781.59;5236867;28;20033;-84
2022/09/27 02:52:21;;;;;;;3.72;2.75;;;;;;;-141.48;100.00;69781.59;5238160;28;20032;-85
2022/09/27 02:55:10;;;;;;;5.20;2.92;;;;;;;-141.48;100.00;69781.59;5236883;28;20025;-85
2022/09/27 02:58:00;;;;;;;2.47;2.28;;;;;;;-141.48;100.00;69781.59;5237180;28;20024;-84
2022/09/27 03:00:39;;;;;;;12.27;2.15;;;;;;;-141.48;100.00;69781.59;5238119;28;20028;-84
2022/09/27 03:03:19;;;;;;;3.67;3.10;;;;;;;-141.48;100.00;69781.59;5235474;28;20017;-85
2022/09/27 03:06:05;;;;;;;2.58;2.28;;;;;;;-141.48;100.00;69781.59;5235749;28;20024;-83
2022/09/27 03:08:37;;;;;;;2.72;2.53;;;;;;;-141.48;100.00;69781.59;5234908;28;20025;-83
2022/09/27 03:11:07;;;;;;;7.05;2.38;;;;;;;-141.48;100.00;69781.59;5235828;28;20025;-83
2022/09/27 03:13:38;;;;;;;7.43;2.28;;;;;;;-141.48;100.00;69781.59;5234436;28;20029;-83
2022/09/27 03:16:09;;;;;;;2.03;1.83;;;;;;;-141.48;100.00;69781.59;5235297;28;20060;-82
2022/09/27 03:18:39;;;;;;;5.35;2.65;;;;;;;-141.48;100.00;69781.59;5236016;28;20049;-83
2022/09/27 03:21:10;;;;;;;6.25;2.42;;;;;;;-141.48;100.00;69781.59;5234379;28;20111;-84
2022/09/27 03:23:40;;;;;;;2.70;2.42;;;;;;;-141.48;100.00;69781.59;5235525;28;20033;-85
2022/09/27 03:26:11;;;;;;;3.60;1.83;;;;;;;-141.48;100.00;69781.59;5235735;28;20089;-86
2022/09/27 03:28:41;;;;;;;2.20;2.10;;;;;;;-141.48;100.00;69781.59;5236753;28;20123;-86
2022/09/27 03:31:13;;;;;;;2.33;1.67;;;;;;;-141.48;100.00;69781.59;5236826;28;20017;-85
2022/09/27 03:33:43;;;;;;;1.52;1.40;;;;;;;-141.48;100.00;69781.59;5236948;28;20020;-86
2022/09/27 03:36:17;;;;;;;1.88;1.77;;;;;;;-141.48;100.00;69781.59;5236288;28;20112;-85
2022/09/27 03:38:47;;;;;;;4.13;2.03;;;;;;;-141.48;100.00;69781.59;5238229;28;20527;-85
2022/09/27 03:41:18;;;;;;;1.90;1.80;;;;;;;-141.48;100.00;69781.59;5237378;28;20055;-86
2022/09/27 03:43:48;;;;;;;1.55;1.55;;;;;;;-141.48;100.00;69781.59;5235058;28;20469;-86
2022/09/27 03:46:19;;;;;;;1.77;1.67;;;;;;;-141.48;100.00;69781.59;5235388;28;20032;-84
2022/09/27 03:48:49;;;;;;;2.38;2.08;;;;;;;-141.48;100.00;69781.59;5234650;28;20025;-84
2022/09/27 03:51:20;;;;;;;1.95;1.65;;;;;;;-141.48;100.00;69781.59;5236016;28;20025;-84
2022/09/27 03:53:50;;;;;;;2.08;1.98;;;;;;;-141.48;100.00;69781.59;5233768;28;20399;-83
2022/09/27 03:56:20;;;;;;;2.95;2.05;;;;;;;-141.48;100.00;69781.59;5236227;28;20023;-84
2022/09/27 03:58:51;;;;;;;2.67;1.88;;;;;;;-141.48;100.00;69781.59;5236021;28;20052;-83
2022/09/27 04:01:21;;;;;;;1.77;1.77;;;;;;;-141.48;100.00;69781.59;5236218;28;20032;-84
2022/09/27 04:03:52;;;;;;;1.92;1.83;;;;;;;-141.48;100.00;69781.59;5233936;28;20094;-84
2022/09/27 04:06:23;;;;;;;2.58;2.38;;;;;;;-141.48;100.00;69781.59;5236062;28;20024;-83
2022/09/27 04:08:53;;;;;;;2.00;1.90;;;;;;;-141.48;100.00;69781.59;5234286;28;20021;-83
2022/09/27 04:11:23;;;;;;;2.13;1.67;;;;;;;-141.48;100.00;69781.59;5235099;28;20029;-84
2022/09/27 04:13:55;;;;;;;2.00;1.90;;;;;;;-141.48;100.00;69781.59;5234404;28;20110;-84
2022/09/27 04:16:26;;;;;;;5.30;1.95;;;;;;;-141.48;100.00;69781.59;5235567;28;20390;-83
2022/09/27 04:18:57;;;;;;;1.83;1.77;;;;;;;-141.48;100.00;69781.59;5235611;28;20032;-83
2022/09/27 04:21:27;;;;;;;2.13;2.03;;;;;;;-141.48;100.00;69781.59;5234174;28;20024;-83
2022/09/27 04:23:58;;;;;;;1.73;1.63;;;;;;;-141.48;100.00;69781.59;5252414;22;20160;-69
2022/09/27 04:26:28;;;;;;;2.03;1.52;;;;;;;-141.48;100.00;69781.59;5230002;28;20092;-68
2022/09/27 04:28:59;;;;;;;1.58;1.58;;;;;;;-141.48;100.00;69781.59;5240818;28;20043;-68
2022/09/27 04:31:29;;;;;;;1.83;1.73;;;;;;;-141.48;100.00;69781.59;5226464;28;20037;-69
2022/09/27 04:34:00;;;;;;;3.03;1.88;;;;;;;-141.48;100.00;69781.59;5208063;28;20052;-68
2022/09/27 04:36:30;;;;;;;3.63;1.92;;;;;;;-141.48;100.00;69781.59;5208489;28;20028;-67
2022/09/27 04:39:04;;;;;;;2.58;2.47;;;;;;;-141.48;100.00;69781.59;5208121;28;20170;-68
2022/09/27 04:41:35;;;;;;;2.28;2.13;;;;;;;-141.48;100.00;69781.59;5207872;28;20174;-68
2022/09/27 04:44:06;;;;;;;3.63;2.10;;;;;;;-141.48;100.00;69781.59;5208150;28;20112;-67
2022/09/27 04:46:36;;;;;;;2.05;1.95;;;;;;;-141.48;100.00;69781.59;5207852;28;20485;-70
2022/09/27 04:49:07;;;;;;;2.30;2.20;;;;;;;-141.48;100.00;69781.59;5207790;28;20028;-69
2022/09/27 04:51:37;;;;;;;1.92;1.92;;;;;;;-141.48;100.00;69781.59;5205379;28;20135;-67
2022/09/27 04:54:08;;;;;;;3.83;2.30;;;;;;;-141.48;100.00;69781.59;5199763;28;20029;-67
2022/09/27 04:56:38;;;;;;;1.92;1.92;;;;;;;-141.48;100.00;69781.59;5203602;28;20392;-66
2022/09/27 04:59:09;;;;;;;2.95;2.70;;;;;;;-141.48;100.00;69781.59;5206926;28;20460;-67
2022/09/27 05:01:40;;;;;;;5.05;2.95;;;;;;;-141.48;100.00;69781.59;5208208;28;20035;-68
2022/09/27 05:04:10;;;;;;;2.25;2.05;;;;;;;-141.48;100.00;69781.59;5201858;28;20698;-68
2022/09/27 05:06:40;;;;;;;2.72;2.53;;;;;;;-141.48;100.00;69781.59;5187714;28;20029;-68
2022/09/27 05:09:11;;;;;;;3.35;3.13;;;;;;;-141.48;100.00;69781.59;5187812;28;20028;-66
2022/09/27 05:11:41;;;;;;;2.72;2.63;;;;;;;-141.48;100.00;69781.59;5187622;28;20442;-67
2022/09/27 05:14:12;;;;;;;2.58;2.42;;;;;;;-141.48;100.00;69781.59;5187723;28;20029;-67
2022/09/27 05:16:43;;;;;;;3.97;3.08;;;;;;;-141.48;100.00;69781.59;5187700;28;20375;-66
2022/09/27 05:19:13;;;;;;;2.80;2.70;;;;;;;-141.48;100.00;69781.59;5187954;28;20032;-67
2022/09/27 05:21:44;;;;;;;5.53;4.10;;;;;;;-141.48;100.00;69781.59;5198445;28;20025;-68
2022/09/27 05:24:14;;;;;;;4.93;4.65;;;;;;;-141.48;100.00;69781.59;5205897;28;20489;-68
2022/09/27 05:26:46;;;;;;;5.03;4.78;;;;;;;-141.48;100.00;69781.59;5207881;28;20029;-68
2022/09/27 05:29:16;;;;;;;19.17;5.05;;;;;;;-141.48;100.00;69781.59;5207338;28;20515;-69
2022/09/27 05:31:48;;;;;;;6.20;5.78;;;;;;;-141.48;100.00;69781.59;5207349;28;20037;-71
2022/09/27 05:34:19;;;;;;;5.35;5.00;;;;;;;-141.48;100.00;69781.59;5206139;28;20041;-68
2022/09/27 05:36:50;;;;;;;6.90;6.35;;;;;;;-141.48;100.00;69781.59;5186921;28;20037;-70
2022/09/27 05:39:20;;;;;;;5.85;5.57;;;;;;;-141.48;100.00;69781.59;5220390;28;20025;-68
2022/09/27 05:41:53;;;;;;;8.23;7.63;;;;;;;-141.48;100.00;69781.59;5204946;28;20137;-67
2022/09/27 05:44:24;;;;;;;5.43;5.18;;;;;;;-141.48;100.00;69781.59;5186798;28;20567;-68
2022/09/27 05:46:55;;;;;;;5.85;5.45;;;;;;;-141.48;100.00;69781.59;5187281;28;20053;-66
2022/09/27 05:49:26;;;;;;;6.05;5.65;;;;;;;-141.48;100.00;69781.59;5186891;28;20516;-69
2022/09/27 05:51:57;;;;;;;6.38;5.97;;;;;;;-141.48;100.00;69781.59;5189114;28;20021;-69
2022/09/27 05:54:28;;;;;;;6.63;5.75;;;;;;;-141.48;100.00;69781.59;5190695;28;20025;-69
2022/09/27 05:56:59;;;;;;;7.65;6.65;;;;;;;-141.48;100.00;69781.59;5190850;28;20025;-71
2022/09/27 05:59:29;;;;;;;6.43;6.00;;;;;;;-141.48;100.00;69781.59;5190788;28;20027;-66
2022/09/27 06:02:00;;;;;;;6.28;5.78;;;;;;;-141.48;100.00;69781.59;5223704;28;20049;-67
2022/09/27 06:04:31;;;;;;;10.27;5.63;;;;;;;-141.48;100.00;69781.59;5190427;28;20068;-69
2022/09/27 06:07:01;;;;;;;7.25;6.65;;;;;;;-141.48;100.00;69781.59;5190891;28;20049;-70
2022/09/27 06:09:32;;;;;;;6.15;5.68;;;;;;;-141.48;100.00;69781.59;5208498;28;20032;-65
2022/09/27 06:12:02;;;;;;;6.32;4.65;;;;;;;-141.48;100.00;69781.59;5208560;28;20033;-68
2022/09/27 06:14:33;;;;;;;5.40;5.00;;;;;;;-141.48;100.00;69781.59;5190363;28;20036;-70
2022/09/27 06:17:04;;;;;;;6.32;6.03;;;;;;;-141.48;100.00;69781.59;5190336;28;20029;-69
2022/09/27 06:19:46;;;;;;;7.68;5.53;;;;;;;-141.48;100.00;69781.59;5208060;28;20021;-67
2022/09/27 06:22:22;;;;;;;8.07;7.47;;;;;;;-141.48;100.00;69781.59;5174392;28;20440;-67
2022/09/27 06:25:02;;;;;;;6.90;6.13;;;;;;;-141.48;100.00;69781.59;5207578;28;20029;-68
2022/09/27 06:27:37;;;;;;;8.02;7.53;;;;;;;-141.48;100.00;69781.59;5207719;28;20060;-67
2022/09/27 06:30:11;;;;;;;9.38;7.18;;;;;;;-141.48;100.00;69781.59;5207922;28;20017;-67
2022/09/27 06:32:41;;;;;;;6.53;6.03;;;;;;;-141.48;100.00;69781.59;5189898;28;20041;-68
2022/09/27 06:35:12;;;;;;;8.95;6.38;;;;;;;-141.48;100.00;69781.59;5189594;28;20028;-67
2022/09/27 06:37:43;;;;;;;10.13;8.10;;;;;;;-141.48;100.00;69781.59;5207791;28;20026;-68
2022/09/27 06:40:13;;;;;;;18.50;8.18;;;;;;;-141.48;100.00;69781.59;5223416;28;20030;-69
2022/09/27 06:42:44;;;;;;;6.95;6.38;;;;;;;-141.48;100.00;69781.59;5190250;28;20061;-69
2022/09/27 06:45:14;;;;;;;7.28;6.72;;;;;;;-141.48;100.00;69781.59;5189031;28;20028;-69
2022/09/27 06:47:46;;;;;;;7.30;6.72;;;;;;;-141.48;100.00;69781.59;5190153;28;20063;-68
2022/09/27 06:50:16;;;;;;;9.73;8.95;;;;;;;-141.48;100.00;69781.59;5190162;28;20456;-68
2022/09/27 06:52:50;;;;;;;6.72;6.32;;;;;;;-141.48;100.00;69781.59;5190506;28;20037;-68
2022/09/27 06:55:20;;;;;;;7.78;7.15;;;;;;;-141.48;100.00;69781.59;5189314;28;20040;-68
2022/09/27 07:00:52;;;;;;;7.65;7.15;;;;;;;-141.48;100.00;69781.59;5207533;28;20091;-66
2022/09/27 07:03:31;;;;;;;9.13;7.28;;;;;;;-141.48;100.00;69781.59;5188237;28;20045;-68
2022/09/27 07:06:05;;;;;;;7.97;7.38;;;;;;;-141.48;100.00;69781.59;5207158;28;20105;-68
2022/09/27 07:08:37;;;;;;;9.45;7.57;;;;;;;-141.48;100.00;69781.59;5189598;28;20036;-69
2022/09/27 07:11:08;;;;;;;11.35;7.93;;;;;;;-141.48;100.00;69781.59;5189114;28;20029;-68
2022/09/27 07:13:41;;;;;;;6.78;6.18;;;;;;;-141.48;100.00;69781.59;5222094;28;20083;-68
2022/09/27 07:16:15;;;;;;;6.70;6.03;;;;;;;-141.48;100.00;69781.59;5188175;28;20022;-68
2022/09/27 07:18:47;;;;;;;6.30;5.80;;;;;;;-141.48;100.00;69781.59;5206818;28;20036;-69
2022/09/27 07:21:18;;;;;;;5.75;5.30;;;;;;;-141.48;100.00;69781.59;5189705;28;20111;-69
2022/09/27 07:23:49;;;;;;;6.90;6.30;;;;;;;-141.48;100.00;69781.59;5189369;28;20105;-69
2022/09/27 07:26:20;;;;;;;13.85;7.00;;;;;;;-141.48;100.00;69781.59;5220080;28;20297;-68
2022/09/27 07:28:52;;;;;;;7.18;6.78;;;;;;;-141.48;100.00;69781.59;5206755;28;20104;-70
2022/09/27 07:31:25;;;;;;;6.40;6.00;;;;;;;-141.48;100.00;69781.59;5189015;28;20109;-71
2022/09/27 07:33:56;;;;;;;5.32;4.93;;;;;;;-141.48;100.00;69781.59;5188943;28;20490;-68
2022/09/27 07:36:26;;;;;;;7.18;6.55;;;;;;;-141.48;100.00;69781.59;5206985;28;20027;-70
2022/09/27 07:39:00;;;;;;;7.45;6.95;;;;;;;-141.48;100.00;69781.59;5189293;28;20036;-70
2022/09/27 07:41:31;;;;;;;7.68;7.10;;;;;;;-141.48;100.00;69781.59;5190190;28;20025;-71
2022/09/27 07:44:01;;;;;;;8.88;8.07;;;;;;;-141.48;100.00;69781.59;5190244;28;20093;-69
2022/09/27 07:46:32;;;;;;;7.18;6.72;;;;;;;-141.48;100.00;69781.59;5223718;28;20116;-69
2022/09/27 07:49:03;;;;;;;7.50;6.40;;;;;;;-141.48;100.00;69781.59;5189854;28;20028;-68
2022/09/27 07:51:33;;;;;;;6.03;5.60;;;;;;;-141.48;100.00;69781.59;5189562;28;20025;-71
2022/09/27 07:54:04;;;;;;;6.10;5.55;;;;;;;-141.48;100.00;69781.59;5188629;28;20375;-68
2022/09/27 07:56:35;;;;;;;7.93;5.63;;;;;;;-141.48;100.00;69781.59;5188681;28;20060;-67
2022/09/27 07:59:05;;;;;;;14.75;6.63;;;;;;;-141.48;100.00;69781.59;5187974;28;20486;-67
2022/09/27 08:01:36;;;;;;;8.27;7.68;;;;;;;-141.48;100.00;69781.59;5188436;28;20025;-68
2022/09/27 08:04:06;;;;;;;7.75;7.25;;;;;;;-141.48;100.00;69781.59;5206706;28;20029;-69
2022/09/27 08:06:37;;;;;;;9.25;7.03;;;;;;;-141.48;100.00;69781.59;5206236;28;20039;-69
2022/09/27 08:09:10;;;;;;;6.60;6.10;;;;;;;-141.48;100.00;69781.59;5188472;28;20025;-69
2022/09/27 08:11:43;;;;;;;5.28;4.78;;;;;;;-141.48;100.00;69781.59;5188631;28;20037;-69
2022/09/27 08:14:14;;;;;;;5.80;5.40;;;;;;;-141.48;100.00;69781.59;5205077;28;20044;-71
2022/09/27 08:16:44;;;;;;;5.60;5.05;;;;;;;-141.48;100.00;69781.59;5188602;28;20026;-70
2022/09/27 08:19:18;;;;;;;7.47;4.57;;;;;;;-141.48;100.00;69781.59;5188449;28;20021;-70
2022/09/27 08:21:53;;;;;;;5.97;4.53;;;;;;;-141.48;100.00;69781.59;5188529;28;20037;-70
2022/09/27 08:24:24;;;;;;;7.22;5.00;;;;;;;-141.48;100.00;69781.59;5187807;28;20485;-70
2022/09/27 08:26:55;;;;;;;6.70;5.88;;;;;;;-141.48;100.00;69781.59;5188378;28;20021;-70
2022/09/27 08:29:25;;;;;;;5.97;5.07;;;;;;;-141.48;100.00;69781.59;5188226;28;20440;-69
2022/09/27 08:31:56;;;;;;;10.60;5.47;;;;;;;-141.48;100.00;69781.59;5204506;28;20051;-68
2022/09/27 08:34:27;;;;;;;7.70;4.97;;;;;;;-141.48;100.00;69781.59;5208193;28;20032;-67
2022/09/27 08:36:58;;;;;;;6.25;5.65;;;;;;;-141.48;100.00;69781.59;5208084;28;20032;-69
2022/09/27 08:39:30;;;;;;;9.32;5.65;;;;;;;-141.48;100.00;69781.59;5225803;28;20397;-70
2022/09/27 08:42:18;;;;;;;7.90;7.40;;;;;;;-141.48;100.00;69781.59;5225970;28;20489;-69
2022/09/27 08:45:04;;;;;;;7.35;6.85;;;;;;;-141.48;100.00;69781.59;5207900;28;20128;-69
2022/09/27 08:48:09;;;;;;;6.15;5.70;;;;;;;-141.48;100.00;69781.59;5208330;28;20021;-68
2022/09/27 08:51:13;;;;;;;7.00;6.40;;;;;;;-141.48;100.00;69781.59;5209291;28;20098;-69
2022/09/27 08:54:03;;;;;;;5.32;5.03;;;;;;;-141.48;100.00;69781.59;5207834;28;20041;-69
2022/09/27 08:56:35;;;;;;;6.57;5.43;;;;;;;-141.48;100.00;69781.59;5225855;28;20025;-69
2022/09/27 08:59:24;;;;;;;6.25;5.35;;;;;;;-141.48;100.00;69781.59;5225801;28;20020;-70
2022/09/27 09:02:13;;;;;;;5.97;5.68;;;;;;;-141.48;100.00;69781.59;5207923;28;20033;-69
2022/09/27 09:04:47;;;;;;;6.25;5.85;;;;;;;-141.48;100.00;69781.59;5193356;28;20029;-69
2022/09/27 09:07:37;;;;;;;6.57;6.22;;;;;;;-141.48;100.00;69781.59;5207544;28;20060;-65
2022/09/27 09:13:25;;;;;;;7.57;6.07;;;;;;;-141.48;100.00;69781.59;5225618;28;20040;-66
2022/09/27 09:16:05;;;;;;;5.85;5.50;;;;;;;-141.48;100.00;69781.59;5207567;28;20119;-66
2022/09/27 09:19:03;;;;;;;7.85;7.13;;;;;;;-141.48;100.00;69781.59;5206867;28;20033;-67
2022/09/27 09:21:58;;;;;;;7.55;6.25;;;;;;;-141.48;100.00;69781.59;5206485;28;20175;-67
2022/09/27 09:25:15;;;;;;;8.30;6.63;;;;;;;-141.48;100.00;69781.59;5206571;28;20043;-68
2022/09/27 09:28:01;;;;;;;7.55;6.13;;;;;;;-141.48;100.00;69781.59;5228021;28;20032;-69
2022/09/27 09:31:02;;;;;;;5.13;4.82;;;;;;;-141.48;100.00;69781.59;5228317;28;20017;-68
2022/09/27 09:33:43;;;;;;;5.95;5.53;;;;;;;-141.48;100.00;69781.59;5210702;28;20029;-68
2022/09/27 09:36:28;;;;;;;4.72;4.32;;;;;;;-141.48;100.00;69781.59;5211162;28;20029;-68
2022/09/27 09:39:10;;;;;;;5.28;4.88;;;;;;;-141.48;100.00;69781.59;5210750;28;20027;-68
2022/09/27 09:41:52;;;;;;;5.78;5.15;;;;;;;-141.48;100.00;69781.59;5210066;28;20028;-67
2022/09/27 09:44:28;;;;;;;4.72;4.50;;;;;;;-141.48;100.00;69781.59;5200357;28;20025;-68
2022/09/27 09:47:09;;;;;;;4.13;3.67;;;;;;;-141.48;100.00;69781.59;5189912;28;20079;-68
2022/09/27 09:49:46;;;;;;;4.47;4.07;;;;;;;-141.48;100.00;69781.59;5189143;28;20460;-67
2022/09/27 09:52:20;;;;;;;6.20;5.65;;;;;;;-141.48;100.00;69781.59;5189946;28;20026;-68
2022/09/27 09:55:05;;;;;;;3.60;3.42;;;;;;;-141.48;100.00;69781.59;5205595;28;20049;-68
2022/09/27 09:57:42;;;;;;;4.15;3.78;;;;;;;-141.48;100.00;69781.59;5189816;28;20170;-69
2022/09/27 10:00:15;;;;;;;3.92;3.30;;;;;;;-141.48;100.00;69781.59;5189796;28;20032;-68
2022/09/27 10:02:48;;;;;;;4.07;3.75;;;;;;;-141.48;100.00;69781.59;5189618;28;20033;-69
2022/09/27 10:05:23;;;;;;;2.97;2.88;;;;;;;-141.48;100.00;69781.59;5190033;28;20037;-70
2022/09/27 10:07:59;;;;;;;12.18;4.38;;;;;;;-141.48;100.00;69781.59;5204744;28;20025;-70
2022/09/27 10:10:30;;;;;;;3.47;3.03;;;;;;;-141.48;100.00;69781.59;5209784;28;20021;-70
2022/09/27 10:13:02;;;;;;;4.07;3.88;;;;;;;-141.48;100.00;69781.59;5210201;28;20082;-71
2022/09/27 10:15:36;;;;;;;3.72;3.42;;;;;;;-141.48;100.00;69781.59;5209608;28;20028;-71
2022/09/27 10:18:16;;;;;;;4.75;4.38;;;;;;;-141.48;100.00;69781.59;5209899;28;20074;-70
2022/09/27 10:20:54;;;;;;;3.47;3.28;;;;;;;-141.48;100.00;69781.59;5210178;28;20025;-69
2022/09/27 10:26:10;;;;;;;5.57;3.88;;;;;;;-141.48;100.00;69781.59;5203621;28;20111;-67
2022/09/27 10:28:44;;;;;;;5.03;4.60;;;;;;;-141.48;100.00;69781.59;5200093;28;20026;-65
2022/09/27 10:31:17;;;;;;;6.55;4.55;;;;;;;-141.48;100.00;69781.59;5183840;28;20049;-65
2022/09/27 10:33:55;;;;;;;4.72;4.43;;;;;;;-141.48;100.00;69781.59;5183465;28;20112;-65
2022/09/27 10:36:29;;;;;;;5.00;4.47;;;;;;;-141.48;100.00;69781.59;5183390;28;20033;-65
2022/09/27 10:39:03;;;;;;;3.75;3.55;;;;;;;-141.48;100.00;69781.59;5182077;28;20385;-65
2022/09/27 10:41:40;;;;;;;4.13;3.72;;;;;;;-141.48;100.00;69781.59;5183568;28;20017;-66
2022/09/27 10:44:24;;;;;;;5.38;4.72;;;;;;;-141.48;100.00;69781.59;5183371;28;20072;-66
2022/09/27 10:47:00;;;;;;;5.25;4.00;;;;;;;-141.48;100.00;69781.59;5183341;28;20116;-65
2022/09/27 10:49:37;;;;;;;4.80;4.38;;;;;;;-141.48;100.00;69781.59;5183235;28;20033;-65
2022/09/27 10:52:19;;;;;;;6.65;6.10;;;;;;;-141.48;100.00;69781.59;5183528;28;20109;-65
2022/09/27 10:55:00;;;;;;;4.63;4.15;;;;;;;-141.48;100.00;69781.59;5183276;28;20544;-64
2022/09/27 10:57:31;;;;;;;4.95;4.55;;;;;;;-141.48;100.00;69781.59;5184551;28;20159;-65
2022/09/27 11:00:06;;;;;;;4.28;3.47;;;;;;;-141.48;100.00;69781.59;5183304;28;20030;-65
2022/09/27 11:02:38;;;;;;;6.45;3.97;;;;;;;-141.48;100.00;69781.59;5183444;28;20130;-65
2022/09/27 11:05:32;;;;;;;5.63;4.18;;;;;;;-141.48;100.00;69781.59;5183097;28;20026;-65
2022/09/27 11:08:18;;;;;;;5.25;3.50;;;;;;;-141.48;100.00;69781.59;5183387;28;20022;-65
2022/09/27 11:11:13;;;;;;;10.73;4.32;;;;;;;-141.48;100.00;69781.59;5183195;28;20025;-67
2022/09/27 11:13:57;;;;;;;5.95;5.32;;;;;;;-141.48;100.00;69781.59;5182932;28;20029;-67
2022/09/27 11:16:55;;;;;;;6.30;4.40;;;;;;;-141.48;100.00;69781.59;5184491;28;20033;-66
2022/09/27 11:19:51;;;;;;;3.85;3.58;;;;;;;-141.48;100.00;69781.59;5182844;28;20034;-67
2022/09/27 11:22:56;;;;;;;5.13;4.82;;;;;;;-141.48;100.00;69781.59;5182772;28;20030;-67
2022/09/27 11:25:28;;;;;;;4.97;4.63;;;;;;;-141.48;100.00;69781.59;5182506;28;20103;-67
2022/09/27 11:28:32;;;;;;;5.53;5.10;;;;;;;-141.48;100.00;69781.59;5184158;28;20021;-67
2022/09/27 11:31:28;;;;;;;7.07;4.45;;;;;;;-141.48;100.00;69781.59;5182364;28;20057;-67
2022/09/27 11:34:17;;;;;;;4.15;3.80;;;;;;;-141.48;100.00;69781.59;5182234;28;20026;-67
2022/09/27 11:36:56;;;;;;;3.13;3.03;;;;;;;-141.48;100.00;69781.59;5183337;28;20040;-66
2022/09/27 11:39:33;;;;;;;29.23;11.70;;;;;;;-141.48;100.00;69781.59;5182424;28;20033;-66
2022/09/27 11:42:22;;;;;;;21.48;9.48;;;;;;;-141.48;100.00;69781.59;5182367;28;20034;-66
2022/09/27 11:44:55;;;;;;;8.80;5.32;;;;;;;-141.48;100.00;69781.59;5181795;28;20030;-67
2022/09/27 11:47:44;;;;;;;5.53;4.60;;;;;;;-141.48;100.00;69781.59;5181862;28;20260;-66
2022/09/27 11:50:33;;;;;;;5.95;5.38;;;;;;;-141.48;100.00;69781.59;5181184;28;20026;-67
2022/09/27 11:53:31;;;;;;;6.30;5.70;;;;;;;-141.48;100.00;69781.59;5181700;28;20026;-67
2022/09/27 11:56:10;;;;;;;3.58;3.33;;;;;;;-141.48;100.00;69781.59;5183087;28;20041;-66
2022/09/27 11:58:58;;;;;;;4.70;4.10;;;;;;;-141.48;100.00;69781.59;5182098;28;20394;-66